createdAt,value
2019-04-20T00:00:00.781Z,5.13
2019-04-20T00:02:25.791Z,5.20
2019-04-20T00:04:55.059Z,5.77
2019-04-20T00:07:29.470Z,4.73
2019-04-20T00:10:02.598Z,5.30
2019-04-20T00:12:36.784Z,5.20
2019-04-20T00:14:56.599Z,5.63
2019-04-20T00:17:26.695Z,5.17
2019-04-20T00:19:57.787Z,5.00
2019-04-20T00:22:46.930Z,5.27
2019-04-20T00:25:41.721Z,5.30
2019-04-20T00:28:22.450Z,5.43
2019-04-20T00:30:53.355Z,5.30
2019-04-20T00:33:14.729Z,5.27
2019-04-20T00:35:35.900Z,5.40
2019-04-20T00:38:05.641Z,5.80
2019-04-20T00:40:35.754Z,5.07
2019-04-20T00:43:06.559Z,5.40
2019-04-20T00:45:41.398Z,5.10
2019-04-20T00:48:19.993Z,5.80
2019-04-20T00:50:49.116Z,5.63
2019-04-20T00:53:17.053Z,5.70
2019-04-20T00:55:38.098Z,5.90
2019-04-20T00:58:17.382Z,5.57
2019-04-20T01:01:04.059Z,5.33
2019-04-20T01:03:20.933Z,5.77
2019-04-20T01:06:22.241Z,5.03
2019-04-20T01:08:40.209Z,5.33
2019-04-20T01:11:10.205Z,5.30
2019-04-20T01:13:45.949Z,5.33
2019-04-20T01:16:21.731Z,5.77
2019-04-20T01:18:43.748Z,5.47
2019-04-20T01:21:16.675Z,5.60
2019-04-20T01:23:50.795Z,5.50
2019-04-20T01:26:17.187Z,5.60
2019-04-20T01:28:57.640Z,5.53
2019-04-20T01:31:25.424Z,5.20
2019-04-20T01:33:56.323Z,5.83
2019-04-20T01:36:37.113Z,5.40
2019-04-20T01:39:02.798Z,6.13
2019-04-20T01:41:22.168Z,5.50
2019-04-20T01:43:52.272Z,6.00
2019-04-20T01:46:24.879Z,5.20
2019-04-20T01:48:52.642Z,5.60
2019-04-20T01:51:27.173Z,5.80
2019-04-20T01:54:11.746Z,5.67
2019-04-20T01:56:40.064Z,5.60
2019-04-20T01:59:20.030Z,6.30
2019-04-20T02:01:59.433Z,6.40
2019-04-20T02:04:40.950Z,5.57
2019-04-20T02:07:09.147Z,5.93
2019-04-20T02:09:45.616Z,6.03
2019-04-20T02:12:15.464Z,6.57
2019-04-20T02:14:46.242Z,5.77
2019-04-20T02:17:22.737Z,5.90
2019-04-20T02:20:02.314Z,5.83
2019-04-20T02:22:30.311Z,6.20
2019-04-20T02:24:42.706Z,6.20
2019-04-20T02:27:12.566Z,5.57
2019-04-20T02:30:06.463Z,6.00
2019-04-20T02:32:53.278Z,5.70
2019-04-20T02:35:34.405Z,5.77
2019-04-20T02:38:26.095Z,5.73
2019-04-20T02:40:46.886Z,5.70
2019-04-20T02:43:25.346Z,6.30
2019-04-20T02:45:39.892Z,6.03
2019-04-20T02:48:08.138Z,6.27
2019-04-20T02:50:44.556Z,5.80
2019-04-20T02:58:07.041Z,5.73
2019-04-20T03:00:35.222Z,5.80
2019-04-20T03:02:52.883Z,5.57
2019-04-20T03:05:28.321Z,5.90
2019-04-20T03:08:02.779Z,6.13
2019-04-20T03:10:44.634Z,5.67
2019-04-20T03:13:08.593Z,6.20
2019-04-20T03:15:37.709Z,5.80
2019-04-20T03:18:08.814Z,6.50
2019-04-20T03:20:36.824Z,5.83
2019-04-20T03:25:55.962Z,6.00
2019-04-20T03:28:31.009Z,5.90
2019-04-20T03:34:00.840Z,6.20
2019-04-20T03:36:19.639Z,6.20
2019-04-20T03:38:38.461Z,6.30
2019-04-20T03:41:04.019Z,6.10
2019-04-20T03:43:20.187Z,6.13
2019-04-20T03:45:56.158Z,6.57
2019-04-20T03:48:39.357Z,6.60
2019-04-20T03:51:16.334Z,5.83
2019-04-20T03:53:39.252Z,6.33
2019-04-20T03:56:34.636Z,6.73
2019-04-20T03:59:11.899Z,6.70
2019-04-20T04:02:24.609Z,5.83
2019-04-20T04:04:54.746Z,5.90
2019-04-20T04:07:18.275Z,6.30
2019-04-20T04:09:56.165Z,6.97
2019-04-20T04:12:46.795Z,6.60
2019-04-20T04:15:14.894Z,6.83
2019-04-20T04:17:45.579Z,7.83
2019-04-20T04:20:17.803Z,7.37
2019-04-20T04:23:07.936Z,7.23
2019-04-20T04:25:25.038Z,6.57
2019-04-20T04:28:03.899Z,7.77
2019-04-20T04:30:33.065Z,7.63
2019-04-20T04:33:37.895Z,7.03
2019-04-20T04:35:31.362Z,7.47
2019-04-20T04:38:05.804Z,8.27
2019-04-20T04:40:49.862Z,8.93
2019-04-20T04:43:10.241Z,8.37
2019-04-20T04:45:26.557Z,9.30
2019-04-20T04:47:53.676Z,9.53
2019-04-20T04:50:26.222Z,10.03
2019-04-20T04:53:04.117Z,11.50
2019-04-20T04:55:36.311Z,10.23
2019-04-20T04:57:55.773Z,9.43
2019-04-20T05:00:28.229Z,10.87
2019-04-20T05:03:02.020Z,9.93
2019-04-20T05:05:56.135Z,10.23
2019-04-20T05:08:17.892Z,11.43
2019-04-20T05:10:39.281Z,10.97
2019-04-20T05:13:09.138Z,10.90
2019-04-20T05:15:57.412Z,10.50
2019-04-20T05:18:34.730Z,9.73
2019-04-20T05:21:04.404Z,10.30
2019-04-20T05:23:47.890Z,11.70
2019-04-20T05:26:57.484Z,11.20
2019-04-20T05:29:08.533Z,11.50
2019-04-20T05:31:40.417Z,11.90
2019-04-20T05:34:29.523Z,12.07
2019-04-20T05:36:50.329Z,13.03
2019-04-20T05:39:29.796Z,13.07
2019-04-20T05:41:51.517Z,13.40
2019-04-20T05:44:26.283Z,12.70
2019-04-20T05:47:00.941Z,13.70
2019-04-20T05:49:31.674Z,12.93
2019-04-20T05:52:10.447Z,13.13
2019-04-20T05:54:40.364Z,14.40
2019-04-20T05:57:07.817Z,14.40
2019-04-20T05:59:45.413Z,13.67
2019-04-20T06:02:09.719Z,12.23
2019-04-20T06:04:55.223Z,12.57
2019-04-20T06:07:09.458Z,13.37
2019-04-20T06:09:42.953Z,12.23
2019-04-20T06:14:55.896Z,12.53
2019-04-20T06:17:40.090Z,13.80
2019-04-20T06:20:12.631Z,13.47
2019-04-20T06:22:42.780Z,13.20
2019-04-20T06:27:51.192Z,13.27
2019-04-20T06:30:13.622Z,14.10
2019-04-20T06:36:17.233Z,13.10
2019-04-20T06:38:49.699Z,13.87
2019-04-20T06:41:06.311Z,12.53
2019-04-20T06:43:33.336Z,10.17
2019-04-20T06:46:04.321Z,9.83
2019-04-20T06:48:35.317Z,9.77
2019-04-20T06:50:57.121Z,8.37
2019-04-20T06:53:45.363Z,9.57
2019-04-20T06:56:15.694Z,10.00
2019-04-20T07:01:11.007Z,9.37
2019-04-20T07:04:10.754Z,8.77
2019-04-20T07:06:30.720Z,9.10
2019-04-20T07:11:18.531Z,7.77
2019-04-20T07:13:35.914Z,6.47
2019-04-20T07:16:21.580Z,5.63
2019-04-20T07:19:09.443Z,5.47
2019-04-20T07:22:06.004Z,5.20
2019-04-20T07:24:25.160Z,5.57
2019-04-20T07:26:55.847Z,5.17
2019-04-20T07:29:31.942Z,5.37
2019-04-20T07:31:50.068Z,5.47
2019-04-20T07:34:23.370Z,5.70
2019-04-20T07:37:21.647Z,5.43
2019-04-20T07:39:27.942Z,5.40
2019-04-20T07:42:04.522Z,4.60
2019-04-20T07:44:34.767Z,4.20
2019-04-20T07:47:11.738Z,4.70
2019-04-20T07:49:32.934Z,5.27
2019-04-20T07:51:43.863Z,5.10
2019-04-20T07:54:40.132Z,5.30
2019-04-20T07:57:01.831Z,5.23
2019-04-20T07:59:23.366Z,5.20
2019-04-20T08:02:39.076Z,5.30
2019-04-20T08:05:21.912Z,5.47
2019-04-20T08:07:45.710Z,5.27
2019-04-20T08:10:12.215Z,4.27
2019-04-20T08:13:02.375Z,4.20
2019-04-20T08:15:44.524Z,4.00
2019-04-20T08:18:17.998Z,4.80
2019-04-20T08:20:25.736Z,4.27
2019-04-20T08:22:58.638Z,3.80
2019-04-20T08:25:23.520Z,4.00
2019-04-20T08:28:19.291Z,4.03
2019-04-20T08:31:15.309Z,3.20
2019-04-20T08:34:04.832Z,3.13
2019-04-20T08:36:22.822Z,3.50
2019-04-20T08:39:12.727Z,3.10
2019-04-20T08:41:17.957Z,2.73
2019-04-20T08:44:06.440Z,3.13
2019-04-20T08:46:30.925Z,2.97
2019-04-20T08:48:56.707Z,2.90
2019-04-20T08:51:25.964Z,2.53
2019-04-20T08:53:53.331Z,1.93
2019-04-20T08:56:19.751Z,2.30
2019-04-20T08:58:37.023Z,1.90
2019-04-20T09:01:08.623Z,1.93
2019-04-20T09:03:46.362Z,1.87
2019-04-20T09:06:23.811Z,1.90
2019-04-20T09:08:50.325Z,1.83
2019-04-20T09:11:24.486Z,2.00
2019-04-20T09:13:46.186Z,1.80
2019-04-20T09:16:10.856Z,2.00
2019-04-20T09:18:50.551Z,2.27
2019-04-20T09:21:24.348Z,2.47
2019-04-20T09:24:10.785Z,2.10
2019-04-20T09:26:37.588Z,2.60
2019-04-20T09:29:12.560Z,2.60
2019-04-20T09:31:44.823Z,2.50
2019-04-20T09:34:42.389Z,2.80
2019-04-20T09:37:29.655Z,2.63
2019-04-20T09:40:21.645Z,2.90
2019-04-20T09:42:50.663Z,3.70
2019-04-20T09:45:35.007Z,3.83
2019-04-20T09:47:56.454Z,3.37
2019-04-20T09:50:45.014Z,3.70
2019-04-20T09:53:10.182Z,3.63
2019-04-20T09:55:38.173Z,4.03
2019-04-20T09:58:09.534Z,3.30
2019-04-20T10:00:56.832Z,3.50
2019-04-20T10:03:11.253Z,3.40
2019-04-20T10:05:41.194Z,3.30
2019-04-20T10:08:11.390Z,3.13
2019-04-20T10:10:42.635Z,3.57
2019-04-20T10:13:11.254Z,3.33
2019-04-20T10:15:41.569Z,3.33
2019-04-20T10:18:12.029Z,3.50
2019-04-20T10:20:43.435Z,3.53
2019-04-20T10:23:12.469Z,3.43
2019-04-20T10:25:42.509Z,3.50
2019-04-20T10:28:11.818Z,3.63
2019-04-20T10:30:40.871Z,3.83
2019-04-20T10:33:10.011Z,3.10
2019-04-20T10:35:39.487Z,3.40
2019-04-20T10:38:13.747Z,3.47
2019-04-20T10:40:54.041Z,3.03
2019-04-20T10:43:14.196Z,3.50
2019-04-20T10:45:44.748Z,3.47
2019-04-20T10:48:15.137Z,3.40
2019-04-20T10:50:45.084Z,3.30
2019-04-20T10:53:14.576Z,3.30
2019-04-20T10:55:43.468Z,3.60
2019-04-20T10:58:13.604Z,4.07
2019-04-20T11:00:44.313Z,3.93
2019-04-20T11:03:15.550Z,3.47
2019-04-20T11:05:45.062Z,3.20
2019-04-20T11:08:14.854Z,3.77
2019-04-20T11:10:55.585Z,3.20
2019-04-20T11:13:15.234Z,2.93
2019-04-20T11:15:46.557Z,3.83
2019-04-20T11:18:15.533Z,3.60
2019-04-20T11:20:45.603Z,3.83
2019-04-20T11:23:15.842Z,4.00
2019-04-20T11:25:46.292Z,2.80
2019-04-20T11:28:16.614Z,2.87
2019-04-20T11:30:46.284Z,3.50
2019-04-20T11:33:16.098Z,2.70
2019-04-20T11:35:46.477Z,2.90
2019-04-20T11:38:17.267Z,2.50
2019-04-20T11:40:47.037Z,2.70
2019-04-20T11:43:17.792Z,2.60
2019-04-20T11:45:46.896Z,2.43
2019-04-20T11:48:15.936Z,2.70
2019-04-20T11:50:45.470Z,2.57
2019-04-20T11:53:15.306Z,3.13
2019-04-20T11:55:44.647Z,2.80
2019-04-20T11:58:14.216Z,2.83
2019-04-20T12:00:56.288Z,2.37
2019-04-20T12:03:31.095Z,2.13
2019-04-20T12:05:57.909Z,1.90
2019-04-20T12:08:24.967Z,1.80
2019-04-20T12:10:57.744Z,1.83
2019-04-20T12:13:24.814Z,1.70
2019-04-20T12:15:53.870Z,1.90
2019-04-20T12:18:23.411Z,2.40
2019-04-20T12:20:52.596Z,2.10
2019-04-20T12:23:22.342Z,1.90
2019-04-20T12:25:52.368Z,1.90
2019-04-20T12:28:21.975Z,1.97
2019-04-20T12:30:51.503Z,1.80
2019-04-20T12:33:20.609Z,1.40
2019-04-20T12:35:50.098Z,1.63
2019-04-20T12:38:19.251Z,1.47
2019-04-20T12:40:48.456Z,1.70
2019-04-20T12:43:17.608Z,1.63
2019-04-20T12:45:47.697Z,1.47
2019-04-20T12:48:17.635Z,1.50
2019-04-20T12:50:47.783Z,1.40
2019-04-20T12:53:17.122Z,1.30
2019-04-20T12:55:46.526Z,1.30
2019-04-20T12:58:16.620Z,1.40
2019-04-20T13:00:49.669Z,1.13
2019-04-20T13:03:19.333Z,1.20
2019-04-20T13:05:50.050Z,1.17
2019-04-20T13:08:28.611Z,1.20
2019-04-20T13:10:58.364Z,1.47
2019-04-20T13:13:50.326Z,1.30
2019-04-20T13:16:26.117Z,0.90
2019-04-20T13:19:03.547Z,1.20
2019-04-20T13:21:32.725Z,1.10
2019-04-20T13:24:03.093Z,1.20
2019-04-20T13:26:33.189Z,1.30
2019-04-20T13:29:02.558Z,1.93
2019-04-20T13:31:31.707Z,2.83
2019-04-20T13:34:01.497Z,2.37
2019-04-20T13:36:30.649Z,1.43
2019-04-20T13:38:59.656Z,2.20
2019-04-20T13:41:29.809Z,2.73
2019-04-20T13:44:01.232Z,2.37
2019-04-20T13:46:29.284Z,2.97
2019-04-20T13:48:58.015Z,3.20
2019-04-20T13:51:27.003Z,3.33
2019-04-20T13:53:56.976Z,3.30
2019-04-20T13:56:28.006Z,2.87
2019-04-20T13:59:10.061Z,3.20
2019-04-20T14:02:08.515Z,2.87
2019-04-20T14:04:42.455Z,2.90
2019-04-20T14:07:15.028Z,2.83
2019-04-20T14:09:41.776Z,2.60
2019-04-20T14:12:21.994Z,1.90
2019-04-20T14:14:41.407Z,0.90
2019-04-20T14:17:10.801Z,1.30
2019-04-20T14:19:39.515Z,1.17
2019-04-20T14:22:08.483Z,1.20
2019-04-20T14:24:37.477Z,1.30
2019-04-20T14:27:06.634Z,1.10
2019-04-20T14:29:36.997Z,1.10
2019-04-20T14:32:07.727Z,1.23
2019-04-20T14:34:36.635Z,0.93
2019-04-20T14:37:06.900Z,1.40
2019-04-20T14:39:36.410Z,1.30
2019-04-20T14:42:06.627Z,1.17
2019-04-20T14:44:37.378Z,1.10
2019-04-20T14:47:06.187Z,1.00
2019-04-20T14:49:35.085Z,1.23
2019-04-20T14:52:04.540Z,1.20
2019-04-20T14:54:35.093Z,1.00
2019-04-20T14:57:05.424Z,1.10
2019-04-20T14:59:37.941Z,1.10
2019-04-20T15:02:12.694Z,1.20
2019-04-20T15:04:43.124Z,1.33
2019-04-20T15:07:12.992Z,1.57
2019-04-20T15:09:42.828Z,1.07
2019-04-20T15:12:12.934Z,1.20
2019-04-20T15:14:42.711Z,0.90
2019-04-20T15:17:15.176Z,1.20
2019-04-20T15:20:07.463Z,1.30
2019-04-20T15:22:43.389Z,1.10
2019-04-20T15:25:13.731Z,1.10
2019-04-20T15:27:45.979Z,1.10
2019-04-20T15:30:14.155Z,1.30
2019-04-20T15:32:43.277Z,1.20
2019-04-20T15:35:14.038Z,1.10
2019-04-20T15:37:44.928Z,1.37
2019-04-20T15:40:15.107Z,1.30
2019-04-20T15:42:56.053Z,1.33
2019-04-20T15:45:16.441Z,1.50
2019-04-20T15:47:45.838Z,1.40
2019-04-20T15:50:15.985Z,1.60
2019-04-20T15:52:51.023Z,1.60
2019-04-20T15:55:22.673Z,1.60
2019-04-20T15:57:46.633Z,1.60
2019-04-20T16:00:16.315Z,1.43
2019-04-20T16:02:49.476Z,1.40
2019-04-20T16:05:47.177Z,1.57
2019-04-20T16:08:36.740Z,1.33
2019-04-20T16:11:07.031Z,2.47
2019-04-20T16:13:40.270Z,1.87
2019-04-20T16:16:07.907Z,1.70
2019-04-20T16:18:37.213Z,1.60
2019-04-20T16:21:13.360Z,1.80
2019-04-20T16:23:48.525Z,1.90
2019-04-20T16:26:29.551Z,2.07
2019-04-20T16:28:59.709Z,1.80
2019-04-20T16:31:28.895Z,2.43
2019-04-20T16:33:58.799Z,2.10
2019-04-20T16:36:28.498Z,2.03
2019-04-20T16:38:57.675Z,1.90
2019-04-20T16:41:26.494Z,1.90
2019-04-20T16:43:55.452Z,1.77
2019-04-20T16:46:25.824Z,1.80
2019-04-20T16:48:55.133Z,1.90
2019-04-20T16:51:25.117Z,1.90
2019-04-20T16:53:54.423Z,2.20
2019-04-20T16:56:24.437Z,1.90
2019-04-20T16:58:59.370Z,2.07
2019-04-20T17:01:23.693Z,2.80
2019-04-20T17:04:01.892Z,2.13
2019-04-20T17:06:24.233Z,2.17
2019-04-20T17:08:54.527Z,2.07
2019-04-20T17:11:23.853Z,2.40
2019-04-20T17:13:56.207Z,2.10
2019-04-20T17:16:23.841Z,2.20
2019-04-20T17:18:53.043Z,2.20
2019-04-20T17:21:25.848Z,2.23
2019-04-20T17:23:53.243Z,1.90
2019-04-20T17:26:32.786Z,2.50
2019-04-20T17:29:08.257Z,2.30
2019-04-20T17:31:53.757Z,2.50
2019-04-20T17:34:41.518Z,2.80
2019-04-20T17:36:54.635Z,3.13
2019-04-20T17:39:31.723Z,3.30
2019-04-20T17:42:13.251Z,3.17
2019-04-20T17:44:42.623Z,2.80
2019-04-20T17:47:13.609Z,3.20
2019-04-20T17:49:41.233Z,3.23
2019-04-20T17:52:22.308Z,3.00
2019-04-20T17:54:35.625Z,2.87
2019-04-20T17:57:04.705Z,3.20
2019-04-20T17:59:34.629Z,3.30
2019-04-20T18:02:45.967Z,3.80
2019-04-20T18:05:28.407Z,4.37
2019-04-20T18:07:56.564Z,4.70
2019-04-20T18:10:25.967Z,4.80
2019-04-20T18:12:44.538Z,3.87
2019-04-20T18:15:31.454Z,3.67
2019-04-20T18:18:28.293Z,4.00
2019-04-20T18:20:54.901Z,3.67
2019-04-20T18:23:33.322Z,4.20
2019-04-20T18:26:21.253Z,4.13
2019-04-20T18:28:40.158Z,3.93
2019-04-20T18:31:11.224Z,4.00
2019-04-20T18:33:42.418Z,4.10
2019-04-20T18:36:13.276Z,4.17
2019-04-20T18:38:49.893Z,3.80
2019-04-20T18:41:20.951Z,4.00
2019-04-20T18:43:48.835Z,4.10
2019-04-20T18:46:28.082Z,4.07
2019-04-20T18:49:01.086Z,4.60
2019-04-20T18:51:15.398Z,4.60
2019-04-20T18:53:48.261Z,4.03
2019-04-20T18:56:17.012Z,3.77
2019-04-20T18:58:46.937Z,4.10
2019-04-20T19:01:17.050Z,4.50
2019-04-20T19:03:47.714Z,4.37
2019-04-20T19:06:16.372Z,4.87
2019-04-20T19:08:49.974Z,5.10
2019-04-20T19:11:19.799Z,4.70
2019-04-20T19:13:56.437Z,5.23
2019-04-20T19:16:42.038Z,5.33
2019-04-20T19:19:22.050Z,5.53
2019-04-20T19:21:41.015Z,5.93
2019-04-20T19:24:13.224Z,5.90
2019-04-20T19:26:47.664Z,6.97
2019-04-20T19:29:19.083Z,7.33
2019-04-20T19:31:57.353Z,7.13
2019-04-20T19:34:29.580Z,8.13
2019-04-20T19:36:58.027Z,7.67
2019-04-20T19:39:26.016Z,8.27
2019-04-20T19:41:51.652Z,7.63
2019-04-20T19:44:22.613Z,7.77
2019-04-20T19:47:06.497Z,8.10
2019-04-20T19:49:26.784Z,8.70
2019-04-20T19:52:20.223Z,8.53
2019-04-20T19:54:35.523Z,6.87
2019-04-20T19:57:01.334Z,6.97
2019-04-20T19:59:26.087Z,8.10
2019-04-20T20:01:47.691Z,7.47
2019-04-20T20:04:17.567Z,7.40
2019-04-20T20:06:51.799Z,6.87
2019-04-20T20:09:18.299Z,6.77
2019-04-20T20:11:49.522Z,6.53
2019-04-20T20:14:25.549Z,6.90
2019-04-20T20:17:05.393Z,6.90
2019-04-20T20:19:32.504Z,7.23
2019-04-20T20:22:04.500Z,7.33
2019-04-20T20:24:21.479Z,6.67
2019-04-20T20:26:57.886Z,7.00
2019-04-20T20:29:30.528Z,7.00
2019-04-20T20:32:08.490Z,7.43
2019-04-20T20:34:30.946Z,6.93
2019-04-20T20:36:59.810Z,7.93
2019-04-20T20:39:29.598Z,12.77
2019-04-20T20:42:10.093Z,12.13
2019-04-20T20:44:38.012Z,9.57
2019-04-20T20:47:07.126Z,9.40
2019-04-20T20:49:48.781Z,10.23
2019-04-20T20:52:20.261Z,10.87
2019-04-20T20:54:41.265Z,12.67
2019-04-20T20:57:05.673Z,15.37
2019-04-20T20:59:40.247Z,13.33
2019-04-20T21:02:06.461Z,12.00
2019-04-20T21:04:30.074Z,12.37
2019-04-20T21:07:00.494Z,11.07
2019-04-20T21:09:29.696Z,13.10
2019-04-20T21:12:04.308Z,12.20
2019-04-20T21:14:32.934Z,12.63
2019-04-20T21:17:05.422Z,12.37
2019-04-20T21:19:50.205Z,12.23
2019-04-20T21:22:08.426Z,12.53
2019-04-20T21:24:35.804Z,11.97
2019-04-20T21:27:07.946Z,11.67
2019-04-20T21:29:43.104Z,10.87
2019-04-20T21:32:12.085Z,11.23
2019-04-20T21:34:36.446Z,10.43
2019-04-20T21:37:10.617Z,11.00
2019-04-20T21:39:44.147Z,11.00
2019-04-20T21:42:12.482Z,11.10
2019-04-20T21:44:41.408Z,12.13
2019-04-20T21:47:09.173Z,11.97
2019-04-20T21:49:49.732Z,12.20
2019-04-20T21:52:20.828Z,11.93
2019-04-20T21:54:40.102Z,12.23
2019-04-20T21:57:11.511Z,13.87
2019-04-20T21:59:44.624Z,16.13
2019-04-20T22:02:18.590Z,14.43
2019-04-20T22:04:41.150Z,14.93
2019-04-20T22:07:10.409Z,14.03
2019-04-20T22:09:45.304Z,12.87
2019-04-20T22:12:09.907Z,12.63
2019-04-20T22:14:39.864Z,12.67
2019-04-20T22:17:09.802Z,13.67
2019-04-20T22:19:45.893Z,14.10
2019-04-20T22:22:18.461Z,13.03
2019-04-20T22:24:56.418Z,13.10
2019-04-20T22:27:20.125Z,13.90
2019-04-20T22:29:41.825Z,19.77
2019-04-20T22:32:14.854Z,16.27
2019-04-20T22:34:41.809Z,14.67
2019-04-20T22:37:15.319Z,14.23
2019-04-20T22:39:50.411Z,14.67
2019-04-20T22:42:17.912Z,15.50
2019-04-20T22:44:47.902Z,15.77
2019-04-20T22:47:23.084Z,18.00
2019-04-20T22:50:11.864Z,16.67
2019-04-20T22:52:34.773Z,15.73
2019-04-20T22:55:10.044Z,14.73
2019-04-20T22:57:36.305Z,14.73
2019-04-20T23:00:01.890Z,14.27
2019-04-20T23:02:22.967Z,14.13
2019-04-20T23:04:50.931Z,14.40
2019-04-20T23:07:20.848Z,15.17
2019-04-20T23:09:54.365Z,14.90
2019-04-20T23:12:23.363Z,15.07
2019-04-20T23:14:52.324Z,16.10
2019-04-20T23:17:27.223Z,15.30
2019-04-20T23:19:57.331Z,15.60
2019-04-20T23:22:23.099Z,15.50
2019-04-20T23:24:53.316Z,15.83
2019-04-20T23:27:27.255Z,16.60
2019-04-20T23:29:53.219Z,16.50
2019-04-20T23:32:26.128Z,15.93
2019-04-20T23:34:59.778Z,16.57
2019-04-20T23:37:29.899Z,16.63
2019-04-20T23:39:54.816Z,16.57
2019-04-20T23:42:34.901Z,16.33
2019-04-20T23:45:09.462Z,15.30
2019-04-20T23:47:46.460Z,14.27
2019-04-20T23:50:35.493Z,14.40
2019-04-20T23:53:06.690Z,14.53
2019-04-20T23:55:16.992Z,15.17
2019-04-20T23:57:50.504Z,16.37
